Terminal Aerodrome Forecast
Issued by NWS

Home | Current Version | Previous Version | Text Only | Print | Product List | Glossary On
Versions: 1 2 3 4 5 6 7 8 9 10 11 12 13 14
000
FTUS42 TJSJ 172300
TAFJBQ
TAF
TJBQ 172334Z 1800/1824 09013KT P6SM SCT023 SCT050 BKN090
     FM180600 10012KT P6SM VCSH SCT022 BKN050
     FM181430 08018KT P6SM FEW025 SCT060
     FM182330 09010KT P6SM FEW030 SCT070=

USA.gov is the U.S. government's official web portal to all federal, state and local government web resources and services.